Chadstone Weather > Observations for 04/09/20

Select Day:



Observations
Time Temp Hum DP Wind Gust Dir Rain >9am Press
C % C kph kph mm hPa
00:00 13.4 59 5.6 2.8 7.2 NW 0.0 1022.4
00:10 13.2 60 5.6 2.8 7.2 NNW 0.0 1022.3
00:20 12.9 61 5.6 0.4 3.6 N 0.0 1022.3
00:30 12.4 62 5.3 1.2 3.6 N 0.0 1022.4
00:40 12.0 63 5.2 0.5 3.6 N 0.0 1022.3
00:50 11.7 65 5.3 1.0 3.6 N 0.0 1022.4
01:00 11.8 66 5.7 2.0 5.0 NNW 0.0 1022.5
01:10 11.9 67 6.0 2.9 8.6 NNW 0.0 1022.6
01:20 11.9 66 5.8 3.3 7.2 NNW 0.0 1022.4
01:30 11.9 66 5.8 3.7 9.7 NNW 0.0 1022.3
01:40 11.7 67 5.8 4.6 9.7 NNW 0.0 1022.1
01:50 11.7 67 5.8 2.9 8.6 NNW 0.0 1021.9
02:00 11.5 67 5.6 4.3 11.2 NNW 0.0 1021.9
02:10 11.5 68 5.8 3.7 7.2 NNW 0.0 1021.8
02:20 11.4 68 5.7 4.0 7.2 NW 0.0 1021.6
02:30 11.3 69 5.8 5.1 9.7 NNW 0.0 1021.5
02:40 11.2 69 5.7 4.6 7.2 NNW 0.0 1021.5
02:50 11.1 69 5.6 3.7 9.7 NNW 0.0 1021.5
03:00 11.0 70 5.7 4.2 9.7 N 0.0 1021.5
03:10 11.1 70 5.8 2.7 6.1 N 0.0 1021.7
03:20 11.0 70 5.7 3.3 9.7 N 0.0 1021.9
03:30 11.0 70 5.7 2.9 6.1 NNW 0.0 1021.8
03:40 10.9 71 5.9 3.6 8.6 NNW 0.0 1021.9
03:50 10.8 71 5.8 2.9 7.2 NW 0.0 1021.9
04:00 10.7 72 5.9 5.1 8.6 NNW 0.0 1022.0
04:10 10.6 72 5.8 3.9 8.6 NW 0.0 1022.0
04:20 10.6 72 5.8 5.2 8.6 NNW 0.0 1022.2
04:30 10.5 73 5.9 3.8 8.6 NNW 0.0 1022.4
04:40 10.5 73 5.9 4.7 8.6 NW 0.0 1022.3
04:50 10.5 73 5.9 4.1 11.2 NW 0.0 1022.5
05:00 10.5 73 5.9 5.3 11.2 N 0.0 1022.4
05:10 10.4 73 5.8 4.4 8.6 NNW 0.0 1022.6
05:20 10.4 73 5.8 3.4 7.2 N 0.0 1022.7
05:30 10.3 73 5.7 2.8 7.2 NNW 0.0 1022.8
05:40 10.2 73 5.6 3.2 6.1 NNW 0.0 1022.8
05:50 10.1 73 5.5 2.6 6.1 NNW 0.0 1022.9
06:00 10.0 73 5.4 2.7 5.0 N 0.0 1023.1
06:10 9.9 75 5.7 3.1 7.2 N 0.0 1023.2
06:20 9.8 75 5.6 5.2 11.2 NNW 0.0 1023.1
06:30 9.7 75 5.5 5.8 11.2 NNW 0.0 1023.1
06:40 9.7 75 5.5 3.7 8.6 NW 0.0 1023.3
06:50 9.7 76 5.7 2.9 6.1 NNW 0.0 1023.3
07:00 9.6 76 5.6 2.7 6.1 NNW 0.0 1023.2
07:10 9.6 76 5.6 2.8 5.0 NNW 0.0 1023.2
07:20 9.7 76 5.7 3.1 7.2 NW 0.0 1023.5
07:30 9.9 77 6.1 4.5 9.7 NW 0.0 1023.6
07:40 10.1 76 6.1 4.6 9.7 NW 0.0 1023.7
07:50 10.2 76 6.2 5.4 12.2 N 0.0 1023.8
08:00 10.3 76 6.3 6.2 13.3 NNW 0.0 1023.9
08:10 10.6 76 6.5 5.8 13.3 NNW 0.0 1024.0
08:20 10.8 75 6.5 7.0 14.8 NNW 0.0 1023.9
08:30 11.2 74 6.7 8.2 15.8 N 0.0 1023.9
08:40 11.4 73 6.7 9.7 15.8 NNW 0.0 1024.2
08:50 11.7 73 7.0 5.6 12.2 NNW 0.0 1024.1
09:00 12.0 71 6.9 6.0 13.3 NW 0.0 1023.9
09:10 12.3 71 7.2 6.2 12.2 NNW 0.0 1023.8
09:20 12.7 69 7.2 9.2 15.8 NW 0.0 1023.6
09:30 12.8 67 6.8 8.5 15.8 NNW 0.0 1023.6
09:40 13.0 66 6.8 7.8 14.8 NNW 0.0 1023.4
09:50 13.3 66 7.1 6.2 14.8 NW 0.0 1023.3
10:00 13.6 64 6.9 9.3 15.8 NW 0.0 1023.4
10:10 13.8 63 6.9 7.2 13.3 NW 0.0 1023.3
10:20 14.2 61 6.8 10.0 19.4 NW 0.0 1023.2
10:30 14.6 59 6.7 9.5 15.8 NW 0.0 1023.0
10:40 14.9 58 6.7 9.4 22.0 NW 0.0 1023.0
10:50 15.2 55 6.2 7.4 17.3 NW 0.0 1022.9
11:00 15.3 53 5.8 9.5 19.4 NW 0.0 1022.9
11:10 15.7 52 5.9 9.5 24.5 NNW 0.0 1022.8
11:20 16.0 46 4.4 10.8 24.5 WNW 0.0 1022.8
11:30 16.2 46 4.6 10.6 20.9 WNW 0.0 1022.9
11:40 16.2 46 4.6 11.4 25.6 NW 0.0 1022.7
11:50 16.5 47 5.2 10.6 19.4 NW 0.0 1022.7
12:00 16.9 45 4.9 11.1 27.0 NW 0.0 1022.5
12:10 17.1 43 4.4 10.9 27.0 NNW 0.0 1022.3
12:20 17.3 44 4.9 12.0 20.9 WNW 0.0 1022.2
12:30 17.2 42 4.2 11.3 24.5 NNW 0.0 1022.0
12:40 17.2 43 4.5 10.3 25.6 NW 0.0 1021.9
12:50 17.6 43 4.9 11.1 23.4 NW 0.0 1021.8
13:00 17.6 43 4.9 10.6 20.9 NW 0.0 1021.7
13:10 17.5 44 5.1 10.9 19.4 NW 0.0 1022.3
13:20 17.5 43 4.8 12.3 20.9 WNW 0.0 1022.5
13:30 17.8 43 5.1 11.7 27.0 NW 0.0 1022.5
13:40 18.1 43 5.3 10.4 25.6 NW 0.0 1022.6
13:50 17.7 42 4.6 12.8 25.6 NW 0.0 1022.7
14:00 17.5 43 4.8 12.1 24.5 NW 0.0 1022.8
14:10 17.5 43 4.8 13.9 23.4 NW 0.0 1022.8
14:20 17.4 44 5.0 10.6 22.0 NW 0.0 1022.9
14:30 17.8 44 5.4 12.6 24.5 NW 0.0 1022.6
14:40 17.7 43 5.0 12.9 28.1 NNW 0.0 1022.6
14:50 17.4 44 5.0 13.9 28.1 WNW 0.0 1022.6
15:00 17.1 45 5.1 11.7 20.9 NNW 0.0 1022.5
15:10 16.9 47 5.5 10.5 20.9 NW 0.0 1022.6
15:20 16.9 47 5.5 9.9 20.9 NW 0.0 1022.5
15:30 17.1 47 5.7 9.0 22.0 NNW 0.0 1022.4
15:40 17.1 46 5.4 11.2 22.0 N 0.0 1022.2
15:50 17.1 47 5.7 13.7 23.4 NW 0.0 1022.2
16:00 17.2 45 5.2 12.3 24.5 NW 0.0 1022.1
16:10 17.1 46 5.4 8.6 23.4 NW 0.0 1022.0
16:20 16.9 47 5.5 10.0 24.5 NW 0.0 1022.0
16:30 16.7 47 5.3 9.9 20.9 NNW 0.0 1022.3
16:40 16.8 48 5.7 10.3 20.9 NNW 0.0 1022.0
16:50 16.7 46 5.0 11.0 20.9 NNW 0.0 1022.1
17:00 16.6 47 5.2 10.2 22.0 WNW 0.0 1022.0
17:10 16.5 48 5.5 9.7 22.0 NW 0.0 1021.8
17:20 16.5 49 5.8 8.6 20.9 NW 0.0 1021.9
17:30 16.3 48 5.3 9.6 20.9 NW 0.0 1021.9
17:40 16.2 50 5.8 8.6 19.4 NNW 0.0 1021.9
17:50 16.0 51 5.9 8.9 20.9 NNW 0.0 1021.9
18:00 15.8 54 6.5 14.2 29.5 N 0.0 1022.1
18:10 15.5 55 6.5 9.0 17.3 N 0.0 1022.2
18:20 15.3 56 6.6 11.6 25.6 NNW 0.0 1022.2
18:30 15.1 57 6.6 10.4 20.9 NNW 0.0 1022.2
18:40 14.9 59 7.0 8.7 18.4 N 0.0 1022.2
18:50 14.8 60 7.1 12.8 20.9 N 0.0 1022.2
19:00 14.6 60 6.9 12.4 20.9 NNW 0.0 1022.2
19:10 14.5 61 7.1 10.5 20.9 NNW 0.0 1022.0
19:20 14.4 61 7.0 8.4 15.8 NW 0.0 1022.0
19:30 14.2 62 7.0 9.3 19.4 N 0.0 1022.0
19:40 14.1 62 6.9 10.7 20.9 NNW 0.0 1022.0
19:50 14.0 63 7.1 9.9 18.4 N 0.0 1022.0
20:00 13.8 64 7.1 12.1 20.9 N 0.0 1021.8
20:10 13.7 65 7.2 10.5 17.3 NNW 0.0 1021.8
20:20 13.6 65 7.1 8.9 17.3 NNE 0.0 1021.8
20:30 13.5 65 7.1 10.0 18.4 NNW 0.0 1021.6
20:40 13.5 65 7.1 10.8 19.4 N 0.0 1021.6
20:50 13.4 65 7.0 10.5 20.9 N 0.0 1021.6
21:00 13.3 65 6.9 11.9 22.0 N 0.0 1021.6
21:10 13.3 65 6.9 10.6 17.3 N 0.0 1021.7
21:20 13.3 65 6.9 10.2 19.4 N 0.0 1021.7
21:30 13.3 66 7.1 11.5 24.5 NNW 0.0 1021.7
21:40 13.3 66 7.1 9.4 17.3 NNW 0.0 1021.7
21:50 13.3 66 7.1 9.8 23.4 NNW 0.0 1021.6
22:00 13.4 66 7.2 10.3 29.5 N 0.0 1021.6
22:10 13.5 65 7.1 13.1 24.5 NNW 0.0 1021.4
22:20 13.5 65 7.1 12.2 24.5 N 0.0 1021.3
22:30 13.6 65 7.1 11.7 19.4 NNW 0.0 1021.3
22:40 13.6 65 7.1 12.3 20.9 NNW 0.0 1021.4
22:50 13.7 65 7.2 11.4 23.4 NNW 0.0 1021.2
23:00 13.7 64 7.0 11.2 20.9 NNW 0.0 1021.2
23:10 13.6 64 6.9 12.4 24.5 NNW 0.0 1021.2
23:20 13.6 64 6.9 12.4 23.4 N 0.0 1021.2
23:30 13.6 64 6.9 15.3 33.1 NW 0.0 1021.4
23:40 13.5 65 7.1 12.5 25.6 NW 0.0 1021.3
23:50 13.5 65 7.1 15.3 29.5 NNW 0.0 1021.2